sensor_id;sensor_type;location;lat;lon;timestamp;P1;durP1;ratioP1;P2;durP2;ratioP2
27959;SDS011;15299;48.184;-1.916;2022-10-19T00:02:24;19.67;;;10.50;;
27959;SDS011;15299;48.184;-1.916;2022-10-19T00:04:53;17.08;;;10.45;;
27959;SDS011;15299;48.184;-1.916;2022-10-19T00:07:21;18.02;;;10.25;;
27959;SDS011;15299;48.184;-1.916;2022-10-19T00:09:53;16.52;;;9.88;;
27959;SDS011;15299;48.184;-1.916;2022-10-19T00:12:22;21.42;;;10.15;;
27959;SDS011;15299;48.184;-1.916;2022-10-19T00:14:51;17.63;;;10.68;;
27959;SDS011;15299;48.184;-1.916;2022-10-19T00:17:20;14.30;;;9.40;;
27959;SDS011;15299;48.184;-1.916;2022-10-19T00:19:49;17.50;;;10.63;;
27959;SDS011;15299;48.184;-1.916;2022-10-19T00:22:18;21.20;;;11.15;;
27959;SDS011;15299;48.184;-1.916;2022-10-19T00:24:47;16.40;;;10.73;;
27959;SDS011;15299;48.184;-1.916;2022-10-19T00:27:20;22.77;;;11.77;;
27959;SDS011;15299;48.184;-1.916;2022-10-19T00:29:49;18.25;;;10.65;;
27959;SDS011;15299;48.184;-1.916;2022-10-19T00:32:18;16.70;;;10.13;;
27959;SDS011;15299;48.184;-1.916;2022-10-19T00:34:47;18.73;;;10.25;;
27959;SDS011;15299;48.184;-1.916;2022-10-19T00:37:18;18.92;;;10.82;;
27959;SDS011;15299;48.184;-1.916;2022-10-19T00:39:50;18.83;;;10.18;;
27959;SDS011;15299;48.184;-1.916;2022-10-19T00:42:20;24.08;;;11.93;;
27959;SDS011;15299;48.184;-1.916;2022-10-19T00:44:56;17.20;;;10.57;;
27959;SDS011;15299;48.184;-1.916;2022-10-19T00:47:26;20.17;;;11.02;;
27959;SDS011;15299;48.184;-1.916;2022-10-19T00:49:56;18.30;;;10.60;;
27959;SDS011;15299;48.184;-1.916;2022-10-19T00:52:25;22.02;;;11.35;;
27959;SDS011;15299;48.184;-1.916;2022-10-19T00:54:55;16.27;;;10.23;;
27959;SDS011;15299;48.184;-1.916;2022-10-19T00:57:27;19.02;;;11.10;;
27959;SDS011;15299;48.184;-1.916;2022-10-19T00:59:56;24.27;;;11.85;;
27959;SDS011;15299;48.184;-1.916;2022-10-19T01:02:25;30.42;;;11.82;;
27959;SDS011;15299;48.184;-1.916;2022-10-19T01:04:52;18.75;;;10.68;;
27959;SDS011;15299;48.184;-1.916;2022-10-19T01:07:20;21.73;;;11.40;;
27959;SDS011;15299;48.184;-1.916;2022-10-19T01:09:48;27.42;;;12.15;;
27959;SDS011;15299;48.184;-1.916;2022-10-19T01:12:21;17.20;;;10.60;;
27959;SDS011;15299;48.184;-1.916;2022-10-19T01:15:01;23.23;;;12.18;;
27959;SDS011;15299;48.184;-1.916;2022-10-19T01:17:31;24.70;;;11.70;;
27959;SDS011;15299;48.184;-1.916;2022-10-19T01:22:50;14.95;;;10.60;;
27959;SDS011;15299;48.184;-1.916;2022-10-19T01:25:23;20.45;;;11.23;;
27959;SDS011;15299;48.184;-1.916;2022-10-19T01:27:59;17.55;;;9.98;;
27959;SDS011;15299;48.184;-1.916;2022-10-19T01:30:33;23.42;;;10.90;;
27959;SDS011;15299;48.184;-1.916;2022-10-19T01:33:07;18.50;;;10.35;;
27959;SDS011;15299;48.184;-1.916;2022-10-19T01:35:38;22.70;;;10.45;;
27959;SDS011;15299;48.184;-1.916;2022-10-19T01:38:13;17.30;;;10.97;;
27959;SDS011;15299;48.184;-1.916;2022-10-19T01:40:44;20.25;;;11.45;;
27959;SDS011;15299;48.184;-1.916;2022-10-19T01:43:16;22.33;;;9.98;;
27959;SDS011;15299;48.184;-1.916;2022-10-19T01:48:16;19.55;;;10.95;;
27959;SDS011;15299;48.184;-1.916;2022-10-19T01:50:47;19.73;;;10.77;;
27959;SDS011;15299;48.184;-1.916;2022-10-19T01:53:17;17.50;;;10.55;;
27959;SDS011;15299;48.184;-1.916;2022-10-19T01:55:46;13.55;;;10.45;;
27959;SDS011;15299;48.184;-1.916;2022-10-19T01:58:16;17.92;;;10.63;;
27959;SDS011;15299;48.184;-1.916;2022-10-19T02:00:45;21.88;;;9.90;;
27959;SDS011;15299;48.184;-1.916;2022-10-19T02:03:13;18.95;;;11.07;;
27959;SDS011;15299;48.184;-1.916;2022-10-19T02:05:43;15.80;;;10.93;;
27959;SDS011;15299;48.184;-1.916;2022-10-19T02:08:12;15.15;;;10.18;;
27959;SDS011;15299;48.184;-1.916;2022-10-19T02:10:41;16.33;;;10.75;;
27959;SDS011;15299;48.184;-1.916;2022-10-19T02:13:09;15.50;;;9.85;;
27959;SDS011;15299;48.184;-1.916;2022-10-19T02:15:41;19.67;;;10.90;;
27959;SDS011;15299;48.184;-1.916;2022-10-19T02:18:09;18.63;;;10.38;;
27959;SDS011;15299;48.184;-1.916;2022-10-19T02:20:39;15.55;;;10.18;;
27959;SDS011;15299;48.184;-1.916;2022-10-19T02:23:08;22.63;;;10.40;;
27959;SDS011;15299;48.184;-1.916;2022-10-19T02:25:36;17.20;;;11.20;;
27959;SDS011;15299;48.184;-1.916;2022-10-19T02:28:03;24.85;;;11.23;;
27959;SDS011;15299;48.184;-1.916;2022-10-19T02:30:31;16.70;;;10.32;;
27959;SDS011;15299;48.184;-1.916;2022-10-19T02:32:59;18.67;;;10.02;;
27959;SDS011;15299;48.184;-1.916;2022-10-19T02:35:27;19.83;;;10.18;;
27959;SDS011;15299;48.184;-1.916;2022-10-19T02:37:55;19.67;;;10.05;;
27959;SDS011;15299;48.184;-1.916;2022-10-19T02:40:26;17.60;;;10.15;;
27959;SDS011;15299;48.184;-1.916;2022-10-19T02:42:57;13.93;;;9.50;;
27959;SDS011;15299;48.184;-1.916;2022-10-19T02:45:27;18.92;;;9.90;;
27959;SDS011;15299;48.184;-1.916;2022-10-19T02:47:56;17.55;;;11.40;;
27959;SDS011;15299;48.184;-1.916;2022-10-19T02:50:25;18.20;;;10.23;;
27959;SDS011;15299;48.184;-1.916;2022-10-19T02:52:53;14.73;;;9.75;;
27959;SDS011;15299;48.184;-1.916;2022-10-19T02:55:20;18.45;;;10.15;;
27959;SDS011;15299;48.184;-1.916;2022-10-19T02:57:49;22.08;;;10.43;;
27959;SDS011;15299;48.184;-1.916;2022-10-19T03:00:18;18.75;;;10.27;;
27959;SDS011;15299;48.184;-1.916;2022-10-19T03:02:46;21.88;;;10.65;;
27959;SDS011;15299;48.184;-1.916;2022-10-19T03:05:14;19.88;;;10.50;;
27959;SDS011;15299;48.184;-1.916;2022-10-19T03:07:41;21.92;;;10.60;;
27959;SDS011;15299;48.184;-1.916;2022-10-19T03:10:09;18.45;;;11.40;;
27959;SDS011;15299;48.184;-1.916;2022-10-19T03:12:37;16.10;;;9.95;;
27959;SDS011;15299;48.184;-1.916;2022-10-19T03:15:06;22.73;;;10.30;;
27959;SDS011;15299;48.184;-1.916;2022-10-19T03:17:34;23.85;;;11.57;;
27959;SDS011;15299;48.184;-1.916;2022-10-19T03:20:02;16.92;;;10.27;;
27959;SDS011;15299;48.184;-1.916;2022-10-19T03:22:30;21.08;;;11.20;;
27959;SDS011;15299;48.184;-1.916;2022-10-19T03:24:57;26.02;;;10.93;;
27959;SDS011;15299;48.184;-1.916;2022-10-19T03:27:25;19.20;;;10.85;;
27959;SDS011;15299;48.184;-1.916;2022-10-19T03:29:53;16.63;;;9.77;;
27959;SDS011;15299;48.184;-1.916;2022-10-19T03:32:22;13.45;;;10.38;;
27959;SDS011;15299;48.184;-1.916;2022-10-19T03:34:49;23.13;;;11.27;;
27959;SDS011;15299;48.184;-1.916;2022-10-19T03:37:17;22.70;;;10.30;;
27959;SDS011;15299;48.184;-1.916;2022-10-19T03:39:45;15.13;;;10.50;;
27959;SDS011;15299;48.184;-1.916;2022-10-19T03:42:12;14.20;;;9.43;;
27959;SDS011;15299;48.184;-1.916;2022-10-19T03:44:40;17.02;;;9.85;;
27959;SDS011;15299;48.184;-1.916;2022-10-19T03:47:07;16.50;;;10.20;;
27959;SDS011;15299;48.184;-1.916;2022-10-19T03:49:36;19.17;;;10.20;;
27959;SDS011;15299;48.184;-1.916;2022-10-19T03:52:04;16.38;;;11.32;;
27959;SDS011;15299;48.184;-1.916;2022-10-19T03:54:34;29.20;;;11.02;;
27959;SDS011;15299;48.184;-1.916;2022-10-19T03:57:02;20.13;;;11.25;;
27959;SDS011;15299;48.184;-1.916;2022-10-19T03:59:29;18.60;;;9.68;;
27959;SDS011;15299;48.184;-1.916;2022-10-19T04:01:57;23.92;;;11.25;;
27959;SDS011;15299;48.184;-1.916;2022-10-19T04:04:25;17.55;;;11.45;;
27959;SDS011;15299;48.184;-1.916;2022-10-19T04:06:54;18.23;;;10.45;;
27959;SDS011;15299;48.184;-1.916;2022-10-19T04:09:22;18.70;;;11.27;;
27959;SDS011;15299;48.184;-1.916;2022-10-19T04:11:50;24.52;;;11.88;;
27959;SDS011;15299;48.184;-1.916;2022-10-19T04:14:18;16.90;;;11.40;;
27959;SDS011;15299;48.184;-1.916;2022-10-19T04:16:45;25.23;;;10.20;;
27959;SDS011;15299;48.184;-1.916;2022-10-19T04:19:13;16.55;;;11.60;;
27959;SDS011;15299;48.184;-1.916;2022-10-19T04:21:41;18.65;;;10.63;;
27959;SDS011;15299;48.184;-1.916;2022-10-19T04:24:11;17.08;;;10.55;;
27959;SDS011;15299;48.184;-1.916;2022-10-19T04:26:40;19.00;;;10.70;;
27959;SDS011;15299;48.184;-1.916;2022-10-19T04:29:08;20.40;;;11.93;;
27959;SDS011;15299;48.184;-1.916;2022-10-19T04:31:36;21.35;;;11.32;;
27959;SDS011;15299;48.184;-1.916;2022-10-19T04:34:04;16.13;;;10.88;;
27959;SDS011;15299;48.184;-1.916;2022-10-19T04:36:32;15.50;;;10.88;;
27959;SDS011;15299;48.184;-1.916;2022-10-19T04:39:00;23.15;;;11.63;;
27959;SDS011;15299;48.184;-1.916;2022-10-19T04:41:29;24.50;;;11.32;;
27959;SDS011;15299;48.184;-1.916;2022-10-19T04:43:58;25.67;;;10.90;;
27959;SDS011;15299;48.184;-1.916;2022-10-19T04:46:26;20.00;;;9.43;;
27959;SDS011;15299;48.184;-1.916;2022-10-19T04:48:54;24.08;;;11.05;;
27959;SDS011;15299;48.184;-1.916;2022-10-19T04:51:22;24.08;;;10.60;;
27959;SDS011;15299;48.184;-1.916;2022-10-19T04:53:50;16.50;;;10.65;;
27959;SDS011;15299;48.184;-1.916;2022-10-19T04:56:20;19.77;;;10.40;;
27959;SDS011;15299;48.184;-1.916;2022-10-19T04:58:52;24.50;;;10.10;;
27959;SDS011;15299;48.184;-1.916;2022-10-19T05:01:21;21.98;;;10.95;;
27959;SDS011;15299;48.184;-1.916;2022-10-19T05:03:51;23.45;;;11.65;;
27959;SDS011;15299;48.184;-1.916;2022-10-19T05:06:19;18.38;;;10.50;;
27959;SDS011;15299;48.184;-1.916;2022-10-19T05:08:47;19.13;;;10.75;;
27959;SDS011;15299;48.184;-1.916;2022-10-19T05:11:15;20.33;;;10.27;;
27959;SDS011;15299;48.184;-1.916;2022-10-19T05:13:43;18.52;;;9.98;;
27959;SDS011;15299;48.184;-1.916;2022-10-19T05:16:13;17.63;;;9.88;;
27959;SDS011;15299;48.184;-1.916;2022-10-19T05:18:41;19.10;;;11.15;;
27959;SDS011;15299;48.184;-1.916;2022-10-19T05:21:09;20.90;;;9.32;;
27959;SDS011;15299;48.184;-1.916;2022-10-19T05:23:37;22.50;;;10.73;;
27959;SDS011;15299;48.184;-1.916;2022-10-19T05:26:05;19.38;;;12.18;;
27959;SDS011;15299;48.184;-1.916;2022-10-19T05:28:33;16.63;;;10.30;;
27959;SDS011;15299;48.184;-1.916;2022-10-19T05:31:05;16.63;;;10.68;;
27959;SDS011;15299;48.184;-1.916;2022-10-19T05:33:35;19.92;;;11.32;;
27959;SDS011;15299;48.184;-1.916;2022-10-19T05:36:13;22.17;;;11.35;;
27959;SDS011;15299;48.184;-1.916;2022-10-19T05:38:41;23.73;;;9.90;;
27959;SDS011;15299;48.184;-1.916;2022-10-19T05:42:06;24.45;;;11.02;;
27959;SDS011;15299;48.184;-1.916;2022-10-19T05:44:34;20.48;;;10.60;;
27959;SDS011;15299;48.184;-1.916;2022-10-19T05:47:01;28.67;;;11.23;;
27959;SDS011;15299;48.184;-1.916;2022-10-19T05:49:30;18.80;;;10.50;;
27959;SDS011;15299;48.184;-1.916;2022-10-19T05:51:59;24.20;;;10.80;;
27959;SDS011;15299;48.184;-1.916;2022-10-19T05:54:27;14.75;;;10.82;;
27959;SDS011;15299;48.184;-1.916;2022-10-19T05:56:55;17.27;;;10.23;;
27959;SDS011;15299;48.184;-1.916;2022-10-19T05:59:22;16.90;;;10.20;;
27959;SDS011;15299;48.184;-1.916;2022-10-19T06:01:50;17.65;;;10.93;;
27959;SDS011;15299;48.184;-1.916;2022-10-19T06:04:19;16.33;;;10.30;;
27959;SDS011;15299;48.184;-1.916;2022-10-19T06:06:48;23.13;;;10.82;;
27959;SDS011;15299;48.184;-1.916;2022-10-19T06:09:16;25.55;;;10.93;;
27959;SDS011;15299;48.184;-1.916;2022-10-19T06:11:44;21.08;;;11.27;;
27959;SDS011;15299;48.184;-1.916;2022-10-19T06:14:12;18.40;;;11.15;;
27959;SDS011;15299;48.184;-1.916;2022-10-19T06:16:40;12.98;;;10.75;;
27959;SDS011;15299;48.184;-1.916;2022-10-19T06:19:10;18.90;;;9.77;;
27959;SDS011;15299;48.184;-1.916;2022-10-19T06:21:37;17.42;;;9.70;;
27959;SDS011;15299;48.184;-1.916;2022-10-19T06:28:15;34.42;;;10.95;;
27959;SDS011;15299;48.184;-1.916;2022-10-19T06:30:43;15.07;;;10.48;;
27959;SDS011;15299;48.184;-1.916;2022-10-19T06:33:10;26.58;;;10.73;;
27959;SDS011;15299;48.184;-1.916;2022-10-19T06:35:38;17.73;;;9.60;;
27959;SDS011;15299;48.184;-1.916;2022-10-19T06:38:08;17.85;;;10.45;;
27959;SDS011;15299;48.184;-1.916;2022-10-19T06:40:38;17.90;;;10.55;;
27959;SDS011;15299;48.184;-1.916;2022-10-19T06:43:05;21.67;;;10.85;;
27959;SDS011;15299;48.184;-1.916;2022-10-19T06:45:35;18.58;;;10.02;;
27959;SDS011;15299;48.184;-1.916;2022-10-19T06:48:04;20.05;;;10.32;;
27959;SDS011;15299;48.184;-1.916;2022-10-19T06:50:31;21.15;;;10.13;;
27959;SDS011;15299;48.184;-1.916;2022-10-19T06:52:59;21.35;;;10.48;;
27959;SDS011;15299;48.184;-1.916;2022-10-19T06:55:27;18.77;;;10.05;;
27959;SDS011;15299;48.184;-1.916;2022-10-19T06:57:55;17.80;;;9.82;;
27959;SDS011;15299;48.184;-1.916;2022-10-19T07:00:26;23.95;;;9.50;;
27959;SDS011;15299;48.184;-1.916;2022-10-19T07:02:58;11.25;;;8.85;;
27959;SDS011;15299;48.184;-1.916;2022-10-19T07:05:26;18.38;;;9.73;;
27959;SDS011;15299;48.184;-1.916;2022-10-19T07:07:55;12.75;;;9.70;;
27959;SDS011;15299;48.184;-1.916;2022-10-19T07:10:28;14.45;;;8.48;;
27959;SDS011;15299;48.184;-1.916;2022-10-19T07:12:58;16.13;;;8.85;;
27959;SDS011;15299;48.184;-1.916;2022-10-19T07:15:28;14.15;;;9.05;;
27959;SDS011;15299;48.184;-1.916;2022-10-19T07:18:00;18.27;;;9.77;;
27959;SDS011;15299;48.184;-1.916;2022-10-19T07:20:32;15.90;;;9.48;;
27959;SDS011;15299;48.184;-1.916;2022-10-19T07:23:00;18.98;;;9.38;;
27959;SDS011;15299;48.184;-1.916;2022-10-19T07:25:39;19.60;;;8.60;;
27959;SDS011;15299;48.184;-1.916;2022-10-19T07:28:17;16.35;;;9.52;;
27959;SDS011;15299;48.184;-1.916;2022-10-19T07:30:45;24.42;;;10.25;;
27959;SDS011;15299;48.184;-1.916;2022-10-19T07:33:14;18.27;;;9.88;;
27959;SDS011;15299;48.184;-1.916;2022-10-19T07:35:42;15.75;;;9.75;;
27959;SDS011;15299;48.184;-1.916;2022-10-19T07:38:50;16.10;;;9.48;;
27959;SDS011;15299;48.184;-1.916;2022-10-19T07:41:18;25.70;;;10.20;;
27959;SDS011;15299;48.184;-1.916;2022-10-19T07:43:47;14.88;;;8.98;;
27959;SDS011;15299;48.184;-1.916;2022-10-19T07:46:15;17.25;;;10.25;;
27959;SDS011;15299;48.184;-1.916;2022-10-19T07:48:45;26.05;;;9.43;;
27959;SDS011;15299;48.184;-1.916;2022-10-19T07:51:13;13.52;;;9.30;;
27959;SDS011;15299;48.184;-1.916;2022-10-19T07:53:41;14.43;;;9.50;;
27959;SDS011;15299;48.184;-1.916;2022-10-19T07:56:10;14.57;;;8.48;;
27959;SDS011;15299;48.184;-1.916;2022-10-19T07:58:38;15.95;;;9.70;;
27959;SDS011;15299;48.184;-1.916;2022-10-19T08:01:06;17.77;;;9.10;;
27959;SDS011;15299;48.184;-1.916;2022-10-19T08:03:34;16.40;;;9.15;;
27959;SDS011;15299;48.184;-1.916;2022-10-19T08:06:18;17.45;;;8.90;;
27959;SDS011;15299;48.184;-1.916;2022-10-19T08:08:46;20.63;;;8.57;;
27959;SDS011;15299;48.184;-1.916;2022-10-19T08:11:14;16.92;;;8.80;;
27959;SDS011;15299;48.184;-1.916;2022-10-19T08:13:43;20.45;;;9.40;;
27959;SDS011;15299;48.184;-1.916;2022-10-19T08:16:21;19.65;;;9.32;;
27959;SDS011;15299;48.184;-1.916;2022-10-19T08:18:49;10.43;;;8.40;;
27959;SDS011;15299;48.184;-1.916;2022-10-19T08:21:18;12.45;;;7.45;;
27959;SDS011;15299;48.184;-1.916;2022-10-19T08:23:46;13.60;;;7.97;;
27959;SDS011;15299;48.184;-1.916;2022-10-19T08:26:13;17.65;;;7.90;;
27959;SDS011;15299;48.184;-1.916;2022-10-19T08:28:41;16.80;;;8.15;;
27959;SDS011;15299;48.184;-1.916;2022-10-19T08:31:09;17.15;;;7.82;;
27959;SDS011;15299;48.184;-1.916;2022-10-19T08:33:37;15.35;;;8.05;;
27959;SDS011;15299;48.184;-1.916;2022-10-19T08:36:05;18.58;;;7.78;;
27959;SDS011;15299;48.184;-1.916;2022-10-19T08:38:34;13.45;;;6.68;;
27959;SDS011;15299;48.184;-1.916;2022-10-19T08:41:06;13.93;;;7.20;;
27959;SDS011;15299;48.184;-1.916;2022-10-19T08:43:36;15.55;;;7.05;;
27959;SDS011;15299;48.184;-1.916;2022-10-19T08:46:06;15.27;;;6.97;;
27959;SDS011;15299;48.184;-1.916;2022-10-19T08:48:38;17.13;;;8.38;;
27959;SDS011;15299;48.184;-1.916;2022-10-19T08:51:19;13.65;;;6.43;;
27959;SDS011;15299;48.184;-1.916;2022-10-19T08:54:31;14.63;;;7.75;;
27959;SDS011;15299;48.184;-1.916;2022-10-19T08:57:03;18.13;;;6.70;;
27959;SDS011;15299;48.184;-1.916;2022-10-19T08:59:39;12.35;;;6.55;;
27959;SDS011;15299;48.184;-1.916;2022-10-19T09:02:09;20.88;;;6.88;;
27959;SDS011;15299;48.184;-1.916;2022-10-19T09:04:39;14.57;;;6.18;;
27959;SDS011;15299;48.184;-1.916;2022-10-19T09:07:18;10.95;;;6.57;;
27959;SDS011;15299;48.184;-1.916;2022-10-19T09:09:49;18.60;;;6.10;;
27959;SDS011;15299;48.184;-1.916;2022-10-19T09:12:18;15.75;;;5.68;;
27959;SDS011;15299;48.184;-1.916;2022-10-19T09:14:50;14.93;;;5.65;;
27959;SDS011;15299;48.184;-1.916;2022-10-19T09:17:19;12.77;;;5.45;;
27959;SDS011;15299;48.184;-1.916;2022-10-19T09:19:49;17.60;;;5.47;;
27959;SDS011;15299;48.184;-1.916;2022-10-19T09:22:18;18.95;;;5.03;;
27959;SDS011;15299;48.184;-1.916;2022-10-19T09:24:47;18.17;;;5.80;;
27959;SDS011;15299;48.184;-1.916;2022-10-19T09:27:19;17.85;;;5.63;;
27959;SDS011;15299;48.184;-1.916;2022-10-19T09:29:48;16.17;;;5.05;;
27959;SDS011;15299;48.184;-1.916;2022-10-19T09:32:18;12.90;;;5.10;;
27959;SDS011;15299;48.184;-1.916;2022-10-19T09:34:47;13.32;;;4.97;;
27959;SDS011;15299;48.184;-1.916;2022-10-19T09:37:16;16.85;;;4.75;;
27959;SDS011;15299;48.184;-1.916;2022-10-19T09:39:44;15.20;;;5.13;;
27959;SDS011;15299;48.184;-1.916;2022-10-19T09:42:12;13.85;;;4.55;;
27959;SDS011;15299;48.184;-1.916;2022-10-19T09:44:45;16.30;;;5.63;;
27959;SDS011;15299;48.184;-1.916;2022-10-19T09:47:27;14.73;;;5.45;;
27959;SDS011;15299;48.184;-1.916;2022-10-19T09:50:08;17.55;;;5.15;;
27959;SDS011;15299;48.184;-1.916;2022-10-19T09:52:40;15.43;;;5.03;;
27959;SDS011;15299;48.184;-1.916;2022-10-19T09:55:16;15.40;;;5.40;;
27959;SDS011;15299;48.184;-1.916;2022-10-19T09:57:45;11.05;;;4.85;;
27959;SDS011;15299;48.184;-1.916;2022-10-19T10:00:18;14.07;;;5.05;;
27959;SDS011;15299;48.184;-1.916;2022-10-19T10:05:13;10.93;;;5.68;;
27959;SDS011;15299;48.184;-1.916;2022-10-19T10:07:41;16.65;;;5.60;;
27959;SDS011;15299;48.184;-1.916;2022-10-19T10:10:09;16.20;;;5.43;;
27959;SDS011;15299;48.184;-1.916;2022-10-19T10:12:38;15.60;;;5.25;;
27959;SDS011;15299;48.184;-1.916;2022-10-19T10:15:06;19.95;;;6.20;;
27959;SDS011;15299;48.184;-1.916;2022-10-19T10:17:35;16.33;;;5.13;;
27959;SDS011;15299;48.184;-1.916;2022-10-19T10:20:05;13.43;;;5.15;;
27959;SDS011;15299;48.184;-1.916;2022-10-19T10:22:43;16.88;;;5.43;;
27959;SDS011;15299;48.184;-1.916;2022-10-19T10:25:18;17.63;;;5.53;;
27959;SDS011;15299;48.184;-1.916;2022-10-19T10:27:53;14.88;;;5.10;;
27959;SDS011;15299;48.184;-1.916;2022-10-19T10:30:21;16.35;;;6.05;;
27959;SDS011;15299;48.184;-1.916;2022-10-19T10:32:51;13.50;;;4.90;;
27959;SDS011;15299;48.184;-1.916;2022-10-19T10:35:20;14.40;;;5.10;;
27959;SDS011;15299;48.184;-1.916;2022-10-19T10:37:49;14.32;;;5.07;;
27959;SDS011;15299;48.184;-1.916;2022-10-19T10:40:19;14.73;;;5.65;;
27959;SDS011;15299;48.184;-1.916;2022-10-19T10:42:52;11.32;;;4.88;;
27959;SDS011;15299;48.184;-1.916;2022-10-19T10:45:22;12.68;;;4.72;;
27959;SDS011;15299;48.184;-1.916;2022-10-19T10:47:51;14.68;;;4.20;;
27959;SDS011;15299;48.184;-1.916;2022-10-19T10:50:23;15.55;;;4.88;;
27959;SDS011;15299;48.184;-1.916;2022-10-19T10:52:55;17.25;;;5.60;;
27959;SDS011;15299;48.184;-1.916;2022-10-19T10:55:23;13.40;;;4.75;;
27959;SDS011;15299;48.184;-1.916;2022-10-19T10:57:52;13.98;;;4.97;;
27959;SDS011;15299;48.184;-1.916;2022-10-19T11:00:21;8.73;;;4.78;;
27959;SDS011;15299;48.184;-1.916;2022-10-19T11:02:53;14.43;;;5.03;;
27959;SDS011;15299;48.184;-1.916;2022-10-19T11:05:23;15.88;;;5.00;;
27959;SDS011;15299;48.184;-1.916;2022-10-19T11:07:52;14.18;;;4.70;;
27959;SDS011;15299;48.184;-1.916;2022-10-19T11:10:23;12.82;;;4.65;;
27959;SDS011;15299;48.184;-1.916;2022-10-19T11:12:57;13.13;;;4.78;;
27959;SDS011;15299;48.184;-1.916;2022-10-19T11:15:26;15.57;;;4.32;;
27959;SDS011;15299;48.184;-1.916;2022-10-19T11:17:58;18.15;;;6.82;;
27959;SDS011;15299;48.184;-1.916;2022-10-19T11:20:30;17.73;;;5.05;;
27959;SDS011;15299;48.184;-1.916;2022-10-19T11:23:01;17.13;;;5.35;;
27959;SDS011;15299;48.184;-1.916;2022-10-19T11:25:35;16.33;;;4.25;;
27959;SDS011;15299;48.184;-1.916;2022-10-19T11:28:11;13.85;;;5.82;;
27959;SDS011;15299;48.184;-1.916;2022-10-19T11:30:46;25.45;;;4.57;;
27959;SDS011;15299;48.184;-1.916;2022-10-19T11:33:19;9.52;;;4.55;;
27959;SDS011;15299;48.184;-1.916;2022-10-19T11:35:50;12.10;;;4.77;;
27959;SDS011;15299;48.184;-1.916;2022-10-19T11:38:22;13.48;;;6.00;;
27959;SDS011;15299;48.184;-1.916;2022-10-19T11:40:59;13.10;;;5.28;;
27959;SDS011;15299;48.184;-1.916;2022-10-19T11:43:33;14.60;;;4.47;;
27959;SDS011;15299;48.184;-1.916;2022-10-19T11:46:03;10.98;;;4.60;;
27959;SDS011;15299;48.184;-1.916;2022-10-19T11:48:37;14.60;;;5.10;;
27959;SDS011;15299;48.184;-1.916;2022-10-19T11:51:08;21.45;;;4.68;;
27959;SDS011;15299;48.184;-1.916;2022-10-19T11:53:42;27.40;;;5.53;;
27959;SDS011;15299;48.184;-1.916;2022-10-19T11:56:15;14.48;;;4.95;;
27959;SDS011;15299;48.184;-1.916;2022-10-19T12:02:21;17.35;;;4.07;;
27959;SDS011;15299;48.184;-1.916;2022-10-19T12:04:56;13.93;;;4.45;;
27959;SDS011;15299;48.184;-1.916;2022-10-19T12:07:31;16.70;;;5.70;;
27959;SDS011;15299;48.184;-1.916;2022-10-19T12:10:06;17.83;;;4.32;;
27959;SDS011;15299;48.184;-1.916;2022-10-19T12:12:36;19.00;;;4.68;;
27959;SDS011;15299;48.184;-1.916;2022-10-19T12:15:11;14.82;;;5.10;;
27959;SDS011;15299;48.184;-1.916;2022-10-19T12:17:41;14.82;;;3.75;;
27959;SDS011;15299;48.184;-1.916;2022-10-19T12:20:16;10.20;;;4.55;;
27959;SDS011;15299;48.184;-1.916;2022-10-19T12:22:45;9.60;;;3.83;;
27959;SDS011;15299;48.184;-1.916;2022-10-19T12:25:14;19.02;;;5.25;;
27959;SDS011;15299;48.184;-1.916;2022-10-19T12:27:43;16.58;;;5.35;;
27959;SDS011;15299;48.184;-1.916;2022-10-19T12:30:14;11.77;;;3.78;;
27959;SDS011;15299;48.184;-1.916;2022-10-19T12:32:44;11.27;;;4.60;;
27959;SDS011;15299;48.184;-1.916;2022-10-19T12:35:22;21.17;;;4.47;;
27959;SDS011;15299;48.184;-1.916;2022-10-19T12:37:53;21.70;;;4.72;;
27959;SDS011;15299;48.184;-1.916;2022-10-19T12:40:24;17.65;;;4.10;;
27959;SDS011;15299;48.184;-1.916;2022-10-19T12:42:56;14.10;;;4.45;;
27959;SDS011;15299;48.184;-1.916;2022-10-19T12:45:26;10.52;;;4.10;;
27959;SDS011;15299;48.184;-1.916;2022-10-19T12:53:46;11.93;;;4.63;;
27959;SDS011;15299;48.184;-1.916;2022-10-19T12:56:16;12.52;;;4.63;;
27959;SDS011;15299;48.184;-1.916;2022-10-19T12:58:46;9.02;;;3.60;;
27959;SDS011;15299;48.184;-1.916;2022-10-19T13:01:17;20.30;;;5.93;;
27959;SDS011;15299;48.184;-1.916;2022-10-19T13:03:46;25.30;;;5.53;;
27959;SDS011;15299;48.184;-1.916;2022-10-19T13:06:15;11.02;;;4.72;;
27959;SDS011;15299;48.184;-1.916;2022-10-19T13:08:47;18.75;;;4.60;;
27959;SDS011;15299;48.184;-1.916;2022-10-19T13:11:19;20.42;;;4.45;;
27959;SDS011;15299;48.184;-1.916;2022-10-19T13:13:54;17.02;;;4.38;;
27959;SDS011;15299;48.184;-1.916;2022-10-19T13:16:31;10.40;;;4.00;;
27959;SDS011;15299;48.184;-1.916;2022-10-19T13:19:01;14.38;;;4.55;;
27959;SDS011;15299;48.184;-1.916;2022-10-19T13:29:47;12.45;;;4.00;;
27959;SDS011;15299;48.184;-1.916;2022-10-19T13:35:24;17.30;;;4.50;;
27959;SDS011;15299;48.184;-1.916;2022-10-19T13:40:39;13.13;;;4.43;;
27959;SDS011;15299;48.184;-1.916;2022-10-19T13:43:14;17.98;;;4.70;;
27959;SDS011;15299;48.184;-1.916;2022-10-19T13:45:44;12.55;;;5.10;;
27959;SDS011;15299;48.184;-1.916;2022-10-19T13:48:21;18.10;;;5.32;;
27959;SDS011;15299;48.184;-1.916;2022-10-19T13:50:51;16.13;;;4.95;;
27959;SDS011;15299;48.184;-1.916;2022-10-19T13:53:23;20.95;;;5.15;;
27959;SDS011;15299;48.184;-1.916;2022-10-19T13:55:56;17.65;;;4.57;;
27959;SDS011;15299;48.184;-1.916;2022-10-19T13:58:38;19.10;;;4.97;;
27959;SDS011;15299;48.184;-1.916;2022-10-19T14:01:14;16.83;;;4.82;;
27959;SDS011;15299;48.184;-1.916;2022-10-19T14:03:50;15.23;;;4.07;;
27959;SDS011;15299;48.184;-1.916;2022-10-19T14:06:23;13.10;;;4.78;;
27959;SDS011;15299;48.184;-1.916;2022-10-19T14:09:08;20.88;;;4.53;;
27959;SDS011;15299;48.184;-1.916;2022-10-19T14:11:41;17.70;;;4.20;;
27959;SDS011;15299;48.184;-1.916;2022-10-19T14:14:14;17.50;;;4.43;;
27959;SDS011;15299;48.184;-1.916;2022-10-19T14:16:47;20.02;;;4.82;;
27959;SDS011;15299;48.184;-1.916;2022-10-19T14:19:20;16.13;;;4.90;;
27959;SDS011;15299;48.184;-1.916;2022-10-19T14:21:51;15.15;;;4.80;;
27959;SDS011;15299;48.184;-1.916;2022-10-19T14:24:20;10.80;;;4.20;;
27959;SDS011;15299;48.184;-1.916;2022-10-19T14:26:47;16.95;;;4.55;;
27959;SDS011;15299;48.184;-1.916;2022-10-19T14:29:15;23.83;;;5.30;;
27959;SDS011;15299;48.184;-1.916;2022-10-19T14:31:43;22.48;;;5.50;;
27959;SDS011;15299;48.184;-1.916;2022-10-19T14:34:13;14.82;;;5.03;;
27959;SDS011;15299;48.184;-1.916;2022-10-19T14:36:42;20.45;;;4.88;;
27959;SDS011;15299;48.184;-1.916;2022-10-19T14:39:20;13.93;;;4.90;;
27959;SDS011;15299;48.184;-1.916;2022-10-19T14:41:50;13.38;;;4.95;;
27959;SDS011;15299;48.184;-1.916;2022-10-19T14:44:23;16.67;;;5.40;;
27959;SDS011;15299;48.184;-1.916;2022-10-19T14:46:54;16.42;;;4.07;;
27959;SDS011;15299;48.184;-1.916;2022-10-19T14:49:23;18.40;;;4.13;;
27959;SDS011;15299;48.184;-1.916;2022-10-19T14:51:51;13.95;;;4.32;;
27959;SDS011;15299;48.184;-1.916;2022-10-19T14:54:24;13.77;;;3.83;;
27959;SDS011;15299;48.184;-1.916;2022-10-19T14:56:54;17.67;;;4.57;;
27959;SDS011;15299;48.184;-1.916;2022-10-19T14:59:24;20.80;;;5.50;;
27959;SDS011;15299;48.184;-1.916;2022-10-19T15:04:59;18.25;;;5.53;;
27959;SDS011;15299;48.184;-1.916;2022-10-19T15:07:29;18.17;;;4.65;;
27959;SDS011;15299;48.184;-1.916;2022-10-19T15:10:00;21.52;;;4.90;;
27959;SDS011;15299;48.184;-1.916;2022-10-19T15:12:29;16.08;;;5.07;;
27959;SDS011;15299;48.184;-1.916;2022-10-19T15:15:04;15.13;;;5.20;;